createdAt,value
2019-02-14T00:00:41.767Z,99.90
2019-02-14T00:03:22.328Z,99.90
2019-02-14T00:06:04.749Z,99.90
2019-02-14T00:08:45.454Z,99.90
2019-02-14T00:11:26.081Z,99.90
2019-02-14T00:14:06.765Z,99.90
2019-02-14T00:16:47.313Z,99.90
2019-02-14T00:19:28.440Z,99.90
2019-02-14T00:22:09.138Z,99.90
2019-02-14T00:24:49.714Z,99.90
2019-02-14T00:27:30.304Z,99.90
2019-02-14T00:30:11.272Z,99.90
2019-02-14T00:32:52.040Z,99.90
2019-02-14T00:35:33.056Z,99.90
2019-02-14T00:38:13.925Z,99.90
2019-02-14T00:40:54.735Z,99.90
2019-02-14T00:43:35.493Z,99.90
2019-02-14T00:46:16.279Z,99.90
2019-02-14T00:48:57.030Z,99.90
2019-02-14T00:51:37.997Z,99.90
2019-02-14T00:54:18.742Z,99.90
2019-02-14T00:56:59.457Z,99.90
2019-02-14T00:59:40.254Z,99.90
2019-02-14T01:02:21.242Z,99.90
2019-02-14T01:05:03.624Z,99.90
2019-02-14T01:07:43.940Z,99.90
2019-02-14T01:10:24.477Z,99.90
2019-02-14T01:13:05.330Z,99.90
2019-02-14T01:15:46.215Z,99.90
2019-02-14T01:18:26.993Z,99.90
2019-02-14T01:21:07.765Z,99.90
2019-02-14T01:23:48.574Z,99.90
2019-02-14T01:26:29.438Z,99.90
2019-02-14T01:29:10.479Z,99.90
2019-02-14T01:31:51.141Z,99.90
2019-02-14T01:34:32.130Z,99.90
2019-02-14T01:37:12.777Z,99.90
2019-02-14T01:39:53.765Z,99.90
2019-02-14T01:42:34.197Z,99.90
2019-02-14T01:45:15.062Z,99.90
2019-02-14T01:47:55.718Z,99.90
2019-02-14T01:50:36.749Z,99.90
2019-02-14T01:53:17.677Z,99.90
2019-02-14T01:55:58.061Z,99.90
2019-02-14T01:58:39.109Z,99.90
2019-02-14T02:01:19.938Z,99.90
2019-02-14T02:04:00.606Z,99.90
2019-02-14T02:06:41.729Z,99.90
2019-02-14T02:09:22.650Z,99.90
2019-02-14T02:12:03.268Z,99.90
2019-02-14T02:14:44.202Z,99.90
2019-02-14T02:17:24.698Z,99.90
2019-02-14T02:20:05.398Z,99.90
2019-02-14T02:22:46.186Z,99.90
2019-02-14T02:25:27.021Z,99.90
2019-02-14T02:28:07.749Z,99.90
2019-02-14T02:33:31.830Z,99.90
2019-02-14T02:36:12.929Z,99.90
2019-02-14T02:38:53.936Z,99.90
2019-02-14T02:41:34.587Z,99.90
2019-02-14T02:44:15.454Z,99.90
2019-02-14T02:46:56.258Z,99.90
2019-02-14T02:49:37.477Z,99.90
2019-02-14T02:52:17.944Z,99.90
2019-02-14T02:54:58.575Z,99.90
2019-02-14T02:57:39.340Z,99.90
2019-02-14T03:00:20.293Z,99.90
2019-02-14T03:03:01.376Z,99.90
2019-02-14T03:05:42.270Z,99.90
2019-02-14T03:08:23.140Z,99.90
2019-02-14T03:11:03.662Z,99.90
2019-02-14T03:13:44.281Z,99.90
2019-02-14T03:16:25.007Z,99.90
2019-02-14T03:19:05.673Z,99.90
2019-02-14T03:21:46.429Z,99.90
2019-02-14T03:24:27.088Z,99.90
2019-02-14T03:27:07.868Z,99.90
2019-02-14T03:29:48.856Z,99.90
2019-02-14T03:32:29.733Z,99.90
2019-02-14T03:35:10.390Z,99.90
2019-02-14T03:37:51.008Z,99.90
2019-02-14T03:40:31.991Z,99.90
2019-02-14T03:43:13.082Z,99.90
2019-02-14T03:45:53.776Z,99.90
2019-02-14T03:48:34.320Z,99.90
2019-02-14T03:51:15.189Z,99.90
2019-02-14T03:53:55.703Z,99.90
2019-02-14T03:56:36.705Z,99.90
2019-02-14T03:59:17.237Z,99.90
2019-02-14T04:01:45.723Z,99.90
2019-02-14T04:04:33.472Z,99.90
2019-02-14T04:07:21.477Z,99.90
2019-02-14T04:10:29.951Z,99.90
2019-02-14T04:13:17.699Z,99.90
2019-02-14T04:16:05.457Z,99.90
2019-02-14T04:18:53.192Z,99.90
2019-02-14T04:21:41.201Z,99.90
2019-02-14T04:24:28.952Z,99.90
2019-02-14T04:27:16.785Z,99.90
2019-02-14T04:30:25.265Z,99.90
2019-02-14T04:33:13.019Z,99.90
2019-02-14T04:36:00.769Z,99.90
2019-02-14T04:38:48.525Z,99.90
2019-02-14T04:41:36.283Z,99.90
2019-02-14T04:44:24.028Z,99.90
2019-02-14T04:47:11.789Z,99.90
2019-02-14T04:49:59.564Z,99.90
2019-02-14T04:52:47.328Z,99.90
2019-02-14T04:55:35.077Z,99.90
2019-02-14T04:58:13.844Z,99.90
2019-02-14T05:01:01.588Z,99.90
2019-02-14T05:03:49.422Z,99.90
2019-02-14T05:06:44.204Z,99.90
2019-02-14T05:09:26.652Z,99.90
2019-02-14T05:12:14.400Z,99.90
2019-02-14T05:15:02.151Z,99.90
2019-02-14T05:17:49.904Z,99.90
2019-02-14T05:20:37.657Z,99.90
2019-02-14T05:23:25.414Z,99.90
2019-02-14T05:26:13.156Z,99.90
2019-02-14T05:29:00.913Z,99.90
2019-02-14T05:31:48.659Z,99.90
2019-02-14T05:34:38.142Z,99.90
2019-02-14T05:37:25.900Z,99.90
2019-02-14T05:40:13.653Z,99.90
2019-02-14T05:43:01.417Z,99.90
2019-02-14T05:45:49.160Z,99.90
2019-02-14T05:48:36.921Z,99.90
2019-02-14T05:51:24.673Z,99.90
2019-02-14T05:54:05.340Z,99.90
2019-02-14T05:56:46.403Z,99.90
2019-02-14T05:59:27.132Z,99.90
2019-02-14T06:02:07.625Z,99.90
2019-02-14T06:04:48.581Z,99.90
2019-02-14T06:07:28.955Z,99.90
2019-02-14T06:10:09.619Z,99.90
2019-02-14T06:12:50.388Z,99.90
2019-02-14T06:15:33.010Z,99.90
2019-02-14T06:18:11.757Z,99.90
2019-02-14T06:20:59.520Z,99.90
2019-02-14T06:23:47.281Z,99.90
2019-02-14T06:26:35.041Z,99.90
2019-02-14T06:29:22.798Z,99.90
2019-02-14T06:32:10.549Z,99.90
2019-02-14T06:34:58.328Z,99.90
2019-02-14T06:37:46.080Z,99.90
2019-02-14T06:40:33.827Z,99.90
2019-02-14T06:43:21.580Z,99.90
2019-02-14T06:46:30.061Z,99.90
2019-02-14T06:49:10.652Z,99.90
2019-02-14T06:51:51.690Z,99.90
2019-02-14T06:54:32.667Z,99.90
2019-02-14T06:57:13.119Z,99.90
2019-02-14T06:59:54.027Z,99.90
2019-02-14T07:02:34.873Z,99.90
2019-02-14T07:05:15.828Z,99.90
2019-02-14T07:07:56.565Z,99.90
2019-02-14T07:10:37.336Z,99.90
2019-02-14T07:13:18.100Z,99.90
2019-02-14T07:15:58.756Z,99.90
2019-02-14T07:18:39.484Z,99.90
2019-02-14T07:21:21.742Z,99.90
2019-02-14T07:24:00.658Z,99.90
2019-02-14T07:26:48.407Z,99.90
2019-02-14T07:29:36.156Z,99.90
2019-02-14T07:32:23.996Z,99.90
2019-02-14T07:35:11.804Z,99.90
2019-02-14T07:37:59.556Z,99.90
2019-02-14T07:40:47.300Z,99.90
2019-02-14T07:43:28.384Z,99.90
2019-02-14T07:46:09.175Z,99.90
2019-02-14T07:48:49.811Z,99.90
2019-02-14T07:51:30.256Z,99.90
2019-02-14T07:54:10.808Z,99.90
2019-02-14T07:56:52.538Z,99.90
2019-02-14T07:59:33.544Z,99.90
2019-02-14T08:02:14.411Z,99.90
2019-02-14T08:04:55.026Z,99.90
2019-02-14T08:07:36.305Z,99.90
2019-02-14T08:10:17.244Z,99.90
2019-02-14T08:12:57.976Z,99.90
2019-02-14T08:15:38.572Z,99.90
2019-02-14T08:18:19.794Z,99.90
2019-02-14T08:21:00.204Z,99.90
2019-02-14T08:23:40.580Z,99.90
2019-02-14T08:26:21.000Z,99.90
2019-02-14T08:29:01.609Z,99.90
2019-02-14T08:31:42.576Z,99.90
2019-02-14T08:34:23.859Z,99.90
2019-02-14T08:37:04.618Z,99.90
2019-02-14T08:39:45.365Z,99.90
2019-02-14T08:42:25.920Z,99.90
2019-02-14T08:45:06.592Z,99.90
2019-02-14T08:47:47.128Z,99.90
2019-02-14T08:50:28.992Z,99.90
2019-02-14T08:53:09.992Z,99.90
2019-02-14T08:55:50.784Z,99.90
2019-02-14T08:58:31.324Z,99.90
2019-02-14T09:01:12.273Z,99.90
2019-02-14T09:03:52.656Z,99.90
2019-02-14T09:06:33.233Z,99.90
2019-02-14T09:09:14.129Z,99.90
2019-02-14T09:11:54.973Z,99.90
2019-02-14T09:14:35.901Z,99.90
2019-02-14T09:17:16.801Z,99.90
2019-02-14T09:19:57.631Z,99.90
2019-02-14T09:22:38.196Z,99.90
2019-02-14T09:25:19.000Z,99.90
2019-02-14T09:27:59.415Z,99.90
2019-02-14T09:30:40.140Z,99.90
2019-02-14T09:33:21.200Z,99.90
2019-02-14T09:36:02.589Z,99.90
2019-02-14T09:38:43.336Z,99.90
2019-02-14T09:41:24.102Z,99.90
2019-02-14T09:44:04.699Z,99.90
2019-02-14T09:46:46.329Z,99.90
2019-02-14T09:49:27.112Z,99.90
2019-02-14T09:52:07.697Z,99.90
2019-02-14T09:54:48.678Z,99.90
2019-02-14T09:57:29.370Z,99.90
2019-02-14T10:00:09.806Z,99.90
2019-02-14T10:02:50.552Z,99.90
2019-02-14T10:05:31.409Z,99.90
2019-02-14T10:08:13.262Z,99.90
2019-02-14T10:10:54.053Z,99.90
2019-02-14T10:13:34.805Z,99.90
2019-02-14T10:16:15.326Z,99.90
2019-02-14T10:18:56.084Z,99.90
2019-02-14T10:21:34.824Z,99.90
2019-02-14T10:24:22.625Z,99.90
2019-02-14T10:27:10.370Z,99.90
2019-02-14T10:29:58.129Z,99.90
2019-02-14T10:32:45.864Z,99.90
2019-02-14T10:35:33.624Z,99.90
2019-02-14T10:38:22.684Z,99.90
2019-02-14T10:41:10.860Z,99.90
2019-02-14T10:43:58.601Z,99.90
2019-02-14T10:46:39.363Z,99.90
2019-02-14T10:49:20.278Z,99.90
2019-02-14T10:52:01.289Z,99.90
2019-02-14T10:54:41.816Z,99.90
2019-02-14T10:57:22.535Z,99.90
2019-02-14T11:00:04.042Z,99.90
2019-02-14T11:02:44.916Z,99.90
2019-02-14T11:05:25.847Z,99.90
2019-02-14T11:08:06.510Z,99.90
2019-02-14T11:10:47.345Z,99.90
2019-02-14T11:13:28.344Z,99.90
2019-02-14T11:16:09.793Z,99.90
2019-02-14T11:18:51.037Z,99.90
2019-02-14T11:21:31.861Z,99.90
2019-02-14T11:24:12.942Z,99.90
2019-02-14T11:26:53.916Z,99.90
2019-02-14T11:29:35.007Z,99.90
2019-02-14T11:32:15.492Z,99.90
2019-02-14T11:34:56.200Z,99.90
2019-02-14T11:37:37.061Z,99.90
2019-02-14T11:40:17.876Z,99.90
2019-02-14T11:42:58.014Z,99.90
2019-02-14T11:45:38.493Z,99.90
2019-02-14T11:48:18.924Z,99.90
2019-02-14T11:50:59.684Z,99.90
2019-02-14T11:53:40.073Z,99.90
2019-02-14T11:56:20.922Z,99.90
2019-02-14T11:59:01.276Z,99.90
2019-02-14T12:01:41.976Z,99.90
2019-02-14T12:04:22.425Z,99.90
2019-02-14T12:07:03.313Z,99.90
2019-02-14T12:09:43.613Z,99.90
2019-02-14T12:12:25.797Z,99.90
2019-02-14T12:15:06.597Z,99.90
2019-02-14T12:17:47.499Z,98.50
2019-02-14T12:20:26.756Z,90.40
2019-02-14T12:23:14.607Z,96.60
2019-02-14T12:26:02.401Z,95.10
2019-02-14T12:28:50.149Z,93.90
2019-02-14T12:31:37.893Z,89.10
2019-02-14T12:34:25.655Z,88.60
2019-02-14T12:37:13.396Z,84.80
2019-02-14T12:40:01.158Z,58.40
2019-02-14T12:42:48.960Z,65.30
2019-02-14T12:45:29.463Z,66.30
2019-02-14T12:48:10.018Z,60.30
2019-02-14T12:50:50.852Z,60.60
2019-02-14T12:53:31.728Z,55.80
2019-02-14T12:56:12.609Z,57.70
2019-02-14T12:58:53.416Z,58.40
2019-02-14T13:01:34.395Z,61.20
2019-02-14T13:04:15.261Z,67.00
2019-02-14T13:06:56.018Z,63.30
2019-02-14T13:09:36.977Z,60.50
2019-02-14T13:12:17.520Z,62.70
2019-02-14T13:14:58.192Z,61.30
2019-02-14T13:17:38.920Z,60.50
2019-02-14T13:20:19.805Z,61.60
2019-02-14T13:23:00.636Z,55.40
2019-02-14T13:25:41.216Z,64.20
2019-02-14T13:28:21.752Z,58.30
2019-02-14T13:31:02.267Z,95.60
2019-02-14T13:33:42.856Z,99.90
2019-02-14T13:36:23.512Z,99.90
2019-02-14T13:39:04.861Z,99.90
2019-02-14T13:41:45.680Z,99.90
2019-02-14T13:44:26.024Z,99.90
2019-02-14T13:47:04.727Z,99.90
2019-02-14T13:49:52.481Z,99.90
2019-02-14T13:52:40.226Z,99.90
2019-02-14T13:55:28.438Z,99.90
2019-02-14T13:58:17.458Z,99.90
2019-02-14T14:01:05.290Z,99.90
2019-02-14T14:03:53.030Z,99.90
2019-02-14T14:06:40.797Z,99.90
2019-02-14T14:09:28.628Z,99.90
2019-02-14T14:12:16.371Z,99.90
2019-02-14T14:15:24.852Z,99.90
2019-02-14T14:18:12.598Z,99.90
2019-02-14T14:21:00.352Z,99.90
2019-02-14T14:23:48.112Z,99.90
2019-02-14T14:26:35.865Z,99.90
2019-02-14T14:29:23.617Z,99.90
2019-02-14T14:32:11.368Z,99.90
2019-02-14T14:34:59.121Z,99.90
2019-02-14T14:37:46.876Z,99.90
2019-02-14T14:40:27.607Z,99.90
2019-02-14T14:43:27.474Z,99.90
2019-02-14T14:46:12.308Z,99.90
2019-02-14T14:48:52.956Z,99.90
2019-02-14T14:51:33.752Z,99.90
2019-02-14T14:54:14.281Z,99.90
2019-02-14T14:56:54.932Z,99.90
2019-02-14T14:59:35.628Z,99.90
2019-02-14T15:02:16.477Z,99.90
2019-02-14T15:04:57.237Z,99.90
2019-02-14T15:07:37.705Z,95.70
2019-02-14T15:10:18.793Z,99.50
2019-02-14T15:12:59.479Z,98.40
2019-02-14T15:15:40.466Z,91.30
2019-02-14T15:18:21.247Z,73.60
2019-02-14T15:21:02.197Z,71.30
2019-02-14T15:23:42.989Z,58.20
2019-02-14T15:26:23.565Z,53.60
2019-02-14T15:29:04.660Z,50.10
2019-02-14T15:31:45.567Z,64.90
2019-02-14T15:34:26.639Z,78.80
2019-02-14T15:37:07.395Z,97.80
2019-02-14T15:39:47.985Z,99.90
2019-02-14T15:42:28.584Z,99.90
2019-02-14T15:45:09.414Z,99.90
2019-02-14T15:47:37.812Z,99.90
2019-02-14T15:50:25.574Z,99.90
2019-02-14T15:53:13.319Z,99.90
2019-02-14T15:56:01.071Z,99.90
2019-02-14T15:58:48.816Z,99.90
2019-02-14T16:01:36.574Z,99.90
2019-02-14T16:04:24.325Z,99.90
2019-02-14T16:07:13.302Z,99.90
2019-02-14T16:10:03.763Z,99.90
2019-02-14T16:12:51.034Z,99.90
2019-02-14T16:15:38.799Z,99.90
2019-02-14T16:21:20.589Z,99.90
2019-02-14T16:24:08.333Z,99.90
2019-02-14T16:26:56.096Z,99.90
2019-02-14T16:29:43.839Z,99.90
2019-02-14T16:32:31.619Z,99.90
2019-02-14T16:35:19.365Z,99.90
2019-02-14T16:37:59.781Z,99.90
2019-02-14T16:40:40.689Z,99.90
2019-02-14T16:43:21.571Z,99.90
2019-02-14T16:46:02.372Z,99.90
2019-02-14T16:48:43.151Z,99.90
2019-02-14T16:51:23.988Z,99.90
2019-02-14T16:54:05.022Z,99.90
2019-02-14T16:56:45.831Z,99.90
2019-02-14T16:59:26.768Z,99.90
2019-02-14T17:02:07.548Z,99.90
2019-02-14T17:04:48.107Z,99.90
2019-02-14T17:07:28.957Z,99.90
2019-02-14T17:10:09.912Z,99.90
2019-02-14T17:12:50.676Z,99.90
2019-02-14T17:15:31.717Z,99.90
2019-02-14T17:18:12.660Z,99.90
2019-02-14T17:20:53.526Z,99.90
2019-02-14T17:23:21.948Z,99.90
2019-02-14T17:26:09.688Z,99.90
2019-02-14T17:28:57.459Z,99.90
2019-02-14T17:31:45.276Z,99.90
2019-02-14T17:34:25.628Z,99.90
2019-02-14T17:37:06.260Z,99.90
2019-02-14T17:39:47.253Z,99.90
2019-02-14T17:42:28.204Z,99.90
2019-02-14T17:45:08.870Z,99.90
2019-02-14T17:47:49.533Z,99.90
2019-02-14T17:50:30.107Z,99.90
2019-02-14T17:53:11.092Z,99.90
2019-02-14T17:55:51.973Z,99.90
2019-02-14T17:58:32.875Z,99.90
2019-02-14T18:01:13.511Z,99.90
2019-02-14T18:03:54.432Z,99.90
2019-02-14T18:06:35.035Z,99.90
2019-02-14T18:09:16.004Z,99.90
2019-02-14T18:11:56.665Z,99.90
2019-02-14T18:14:37.172Z,99.90
2019-02-14T18:17:18.107Z,99.90
2019-02-14T18:19:58.709Z,99.90
2019-02-14T18:22:39.509Z,99.90
2019-02-14T18:25:20.312Z,99.90
2019-02-14T18:28:00.588Z,99.90
2019-02-14T18:30:41.692Z,99.90
2019-02-14T18:33:22.552Z,99.90
2019-02-14T18:36:03.320Z,99.90
2019-02-14T18:38:44.273Z,99.90
2019-02-14T18:41:25.420Z,99.90
2019-02-14T18:44:06.467Z,99.90
2019-02-14T18:46:47.211Z,99.90
2019-02-14T18:49:28.304Z,99.90
2019-02-14T18:52:09.089Z,99.90
2019-02-14T18:54:49.729Z,99.90
2019-02-14T18:57:30.684Z,99.90
2019-02-14T19:00:11.546Z,99.90
2019-02-14T19:02:52.079Z,99.90
2019-02-14T19:05:33.116Z,99.90
2019-02-14T19:08:13.692Z,99.90
2019-02-14T19:10:54.576Z,99.90
2019-02-14T19:13:35.340Z,99.90
2019-02-14T19:16:15.887Z,99.90
2019-02-14T19:18:58.700Z,99.90
2019-02-14T19:21:39.830Z,99.90
2019-02-14T19:24:20.616Z,99.90
2019-02-14T19:27:01.384Z,99.90
2019-02-14T19:29:42.449Z,99.90
2019-02-14T19:32:23.338Z,99.90
2019-02-14T19:35:04.126Z,99.90
2019-02-14T19:37:44.488Z,99.90
2019-02-14T19:40:25.081Z,99.90
2019-02-14T19:43:05.814Z,99.90
2019-02-14T19:45:46.748Z,99.90
2019-02-14T19:48:27.255Z,99.90
2019-02-14T19:51:08.069Z,99.90
2019-02-14T19:53:48.914Z,99.90
2019-02-14T19:56:29.617Z,99.90
2019-02-14T19:59:10.535Z,99.90
2019-02-14T20:01:51.376Z,99.90
2019-02-14T20:04:32.450Z,99.90
2019-02-14T20:07:13.006Z,99.90
2019-02-14T20:09:55.593Z,99.90
2019-02-14T20:12:35.864Z,99.90
2019-02-14T20:15:16.506Z,99.90
2019-02-14T20:17:57.391Z,99.90
2019-02-14T20:20:38.116Z,99.90
2019-02-14T20:23:18.972Z,99.90
2019-02-14T20:25:59.949Z,99.90
2019-02-14T20:28:40.654Z,99.90
2019-02-14T20:31:21.520Z,99.90
2019-02-14T20:34:02.238Z,99.90
2019-02-14T20:36:43.135Z,99.90
2019-02-14T20:39:24.144Z,99.90
2019-02-14T20:42:04.981Z,99.90
2019-02-14T20:44:45.814Z,99.90
2019-02-14T20:47:26.592Z,99.90
2019-02-14T20:50:07.386Z,99.90
2019-02-14T20:52:48.269Z,99.90
2019-02-14T20:55:29.068Z,99.90
2019-02-14T20:58:09.804Z,99.90
2019-02-14T21:00:50.781Z,99.90
2019-02-14T21:03:31.668Z,99.90
2019-02-14T21:06:12.872Z,99.90
2019-02-14T21:08:53.684Z,99.90
2019-02-14T21:11:34.706Z,99.90
2019-02-14T21:14:15.326Z,99.90
2019-02-14T21:16:56.011Z,99.90
2019-02-14T21:19:37.043Z,99.90
2019-02-14T21:22:18.808Z,99.90
2019-02-14T21:24:59.957Z,99.90
2019-02-14T21:27:40.490Z,99.90
2019-02-14T21:30:21.467Z,99.90
2019-02-14T21:33:02.372Z,99.90
2019-02-14T21:35:43.083Z,99.90
2019-02-14T21:38:23.939Z,99.90
2019-02-14T21:41:04.623Z,99.90
2019-02-14T21:43:45.252Z,99.90
2019-02-14T21:46:26.178Z,99.90
2019-02-14T21:49:06.941Z,99.90
2019-02-14T21:51:47.772Z,99.90
2019-02-14T21:54:28.711Z,99.90
2019-02-14T21:57:09.391Z,99.90
2019-02-14T21:59:50.240Z,99.90
2019-02-14T22:02:30.689Z,99.90
2019-02-14T22:05:11.210Z,99.90
2019-02-14T22:07:51.862Z,99.90
2019-02-14T22:10:32.881Z,99.90
2019-02-14T22:13:13.607Z,99.90
2019-02-14T22:15:54.526Z,99.90
2019-02-14T22:18:35.179Z,99.90
2019-02-14T22:21:15.872Z,99.90
2019-02-14T22:23:56.580Z,99.90
2019-02-14T22:26:37.445Z,99.90
2019-02-14T22:29:18.330Z,99.90
2019-02-14T22:31:46.749Z,99.90
2019-02-14T22:34:34.508Z,99.90
2019-02-14T22:37:22.275Z,99.90
2019-02-14T22:40:10.589Z,99.90
2019-02-14T22:42:58.352Z,99.90
2019-02-14T22:45:46.129Z,99.90
2019-02-14T22:48:33.912Z,99.90
2019-02-14T22:51:14.501Z,99.90
2019-02-14T22:53:55.419Z,99.90
2019-02-14T22:56:36.032Z,99.90
2019-02-14T22:59:16.636Z,99.90
2019-02-14T23:01:57.371Z,99.90
2019-02-14T23:04:38.249Z,99.90
2019-02-14T23:07:19.136Z,99.90
2019-02-14T23:09:59.925Z,99.90
2019-02-14T23:12:40.696Z,99.90
2019-02-14T23:15:21.334Z,99.90
2019-02-14T23:18:02.099Z,99.90
2019-02-14T23:20:42.928Z,99.90
2019-02-14T23:23:23.722Z,99.90
2019-02-14T23:26:05.689Z,99.90
2019-02-14T23:28:45.870Z,99.90
2019-02-14T23:31:26.522Z,99.90
2019-02-14T23:34:07.306Z,99.90
2019-02-14T23:36:48.211Z,99.90
2019-02-14T23:39:32.468Z,99.90
2019-02-14T23:42:13.622Z,99.90
2019-02-14T23:44:54.349Z,99.90
2019-02-14T23:47:35.450Z,99.90
2019-02-14T23:50:16.415Z,99.90
2019-02-14T23:52:57.378Z,99.90
2019-02-14T23:55:38.250Z,99.90
